• Join FlightAware (Why Join?)
  • Login
  • US Flag 
02:57PM EST


 

Airport Tracker/Info


-or-


 

Live Flight TrackerFlight Track Log ✈ N73DB ✈ 25-Apr-2014 ✈ KLZU - KCLT

Flight Track Log - Related Links

Times and Time Zones

All times are in EDT time to prevent confusion due to time zone crossing. See the N73DB flight status page for this flight to view local times or setup timezone preferences in your user account.

Time Position Orientation Groundspeed Altitude Reporting Facility
EDT Latitude Longitude Course Direction KTS MPH feet Rate Location/Type
05:30PM 33.8631 -83.8911 139° Southeast 214 246 6,700  Level Atlanta Center
05:31PM 33.8794 -83.7911 79° East 214 246 9,300 2,250 Climbing Atlanta Center
05:32PM 33.9022 -83.7008 73° East 251 289 11,200 1,850 Climbing Atlanta Center
05:33PM 33.9228 -83.6058 75° East 278 320 13,000 1,800 Climbing Atlanta Center
05:34PM 33.9475 -83.5131 72° East 284 327 14,800 1,800 Climbing Atlanta Center
05:35PM 33.9700 -83.4100 75° East 298 343 16,600 1,150 Climbing Atlanta Center
05:36PM 33.9925 -83.3022 76° East 318 366 17,100 200 Climbing Atlanta Center
05:37PM 34.0189 -83.1817 75° East 340 391 17,000 -50 Descending Atlanta Center
05:38PM 34.0492 -83.0561 74° East 368 423 17,000  Level Atlanta Center
05:39PM 34.0753 -82.9328 76° East 375 432 17,000  Level Atlanta Center
05:40PM 34.1053 -82.8094 74° East 375 432 17,000  Level Atlanta Center
05:41PM 34.1272 -82.6986 77° East 375 432 17,000  Level Atlanta Center
05:42PM 34.1592 -82.5728 73° East 381 438 17,000  Level Atlanta Center
05:44PM 34.2142 -82.3231 75° East 376 433 17,000  Level Atlanta Center
05:45PM 34.2417 -82.1944 75° East 382 440 17,000  Level Atlanta Center
05:46PM 34.2986 -82.0925 56° Northeast 367 422 17,000 -350 Level Atlanta Center
05:47PM 34.3722 -82.0003 46° Northeast 367 422 16,300 -950 Descending Atlanta Center
05:48PM 34.4417 -81.9156 45° Northeast 356 410 15,100 -1,150 Descending Atlanta Center
05:49PM 34.5069 -81.8306 47° Northeast 345 397 14,000 -1,100 Descending Atlanta Center
05:50PM 34.5783 -81.7378 47° Northeast 340 391 12,900 -894 Descending Atlanta Center
05:50PM 34.6131 -81.6967 44° Northeast 333 383 12,600 -700 Descending Atlanta Center
05:51PM 34.6292 -81.6758 47° Northeast 334 384 12,200 -885 Descending Atlanta Center
05:51PM 34.6783 -81.6164 45° Northeast 325 374 11,700 -1,000 Descending Atlanta Center
05:52PM 34.6964 -81.5908 49° Northeast 321 369 11,200 -590 Descending Atlanta Center
05:52PM 34.7353 -81.5442 45° Northeast 306 352 11,100 -200 Descending Atlanta Center
05:53PM 34.7556 -81.5183 46° Northeast 306 352 11,000  Descending Atlanta Center
05:53PM 34.7961 -81.4614 49° Northeast 301 346 11,100 -100 Climbing Atlanta Center
05:54PM 34.8081 -81.4408 55° Northeast 300 345 10,900 -1,180 Descending Atlanta Center
05:54PM 34.8317 -81.3692 68° East 308 354 9,900 -1,500 Descending Atlanta Center
05:55PM 34.8394 -81.3436 70° East 295 339 9,400 -1,770 Descending Atlanta Center
05:55PM 34.8631 -81.2744 67° East 304 350 8,100 -2,000 Descending Atlanta Center
05:56PM 34.8708 -81.2489 70° East 295 339 7,400 -2,066 Descending Atlanta Center
05:56PM 34.8944 -81.1847 66° East 289 333 6,000 -1,900 Descending Atlanta Center
05:57PM 34.9042 -81.1592 65° Northeast 295 339 5,500 -1,279 Descending Atlanta Center
05:57PM 34.9297 -81.0975 63° Northeast 281 323 4,700 -1,000 Descending Atlanta Center
05:58PM 34.9356 -81.0769 71° East 290 334 4,500 -600 Descending Atlanta Center
05:58PM 34.9631 -81.0075 64° Northeast 274 315 4,100 -600 Descending Atlanta Center
05:59PM 34.9711 -80.9944 53° Northeast 276 318 3,900 -98 Descending Atlanta Center
05:59PM 35.0033 -80.9528 47° Northeast 203 234 4,000 -471 Climbing Atlanta Center
06:00PM 35.0528 -80.9206 28° Northeast 191 220 3,100 -590 Descending Atlanta Center
06:02PM 35.0989 -80.9289 352° North 147 169 2,800 -443 Descending Atlanta Center
06:03PM 35.1322 -80.9303 358° North 110 127 2,200 -645 Descending Atlanta Center
06:04PM 35.1658 -80.9342 355° North 115 132 1,500 -595 Descending Atlanta Center
06:05PM 35.1950 -80.9331 North 101 116 1,000 -492 Descending Atlanta Center
06:07PM 35.2000 -80.9333 North  Level FlightAware Approximate